sensor_id;sensor_type;location;lat;lon;timestamp;P1;durP1;ratioP1;P2;durP2;ratioP2
40204;SDS011;26963;42.666;23.366;2023-07-29T00:00:49;6.53;;;4.20;;
40204;SDS011;26963;42.666;23.366;2023-07-29T00:03:15;6.90;;;3.55;;
40204;SDS011;26963;42.666;23.366;2023-07-29T00:05:40;7.60;;;3.70;;
40204;SDS011;26963;42.666;23.366;2023-07-29T00:08:06;5.40;;;3.83;;
40204;SDS011;26963;42.666;23.366;2023-07-29T00:10:32;5.20;;;3.40;;
40204;SDS011;26963;42.666;23.366;2023-07-29T00:13:00;4.93;;;3.42;;
40204;SDS011;26963;42.666;23.366;2023-07-29T00:15:26;5.30;;;3.80;;
40204;SDS011;26963;42.666;23.366;2023-07-29T00:17:51;6.93;;;3.40;;
40204;SDS011;26963;42.666;23.366;2023-07-29T00:20:17;6.70;;;3.55;;
40204;SDS011;26963;42.666;23.366;2023-07-29T00:22:43;5.88;;;3.60;;
40204;SDS011;26963;42.666;23.366;2023-07-29T00:25:08;7.55;;;3.65;;
40204;SDS011;26963;42.666;23.366;2023-07-29T00:27:34;8.38;;;4.30;;
40204;SDS011;26963;42.666;23.366;2023-07-29T00:29:59;8.90;;;3.88;;
40204;SDS011;26963;42.666;23.366;2023-07-29T00:32:26;6.30;;;3.72;;
40204;SDS011;26963;42.666;23.366;2023-07-29T00:34:54;7.68;;;3.78;;
40204;SDS011;26963;42.666;23.366;2023-07-29T00:37:20;5.43;;;3.88;;
40204;SDS011;26963;42.666;23.366;2023-07-29T00:39:46;8.65;;;3.72;;
40204;SDS011;26963;42.666;23.366;2023-07-29T00:42:11;5.70;;;3.60;;
40204;SDS011;26963;42.666;23.366;2023-07-29T00:44:37;6.45;;;3.47;;
40204;SDS011;26963;42.666;23.366;2023-07-29T00:47:03;4.72;;;3.47;;
40204;SDS011;26963;42.666;23.366;2023-07-29T00:49:31;6.53;;;3.20;;
40204;SDS011;26963;42.666;23.366;2023-07-29T00:51:57;7.28;;;3.67;;
40204;SDS011;26963;42.666;23.366;2023-07-29T00:54:23;6.43;;;3.25;;
40204;SDS011;26963;42.666;23.366;2023-07-29T00:56:48;4.05;;;3.17;;
40204;SDS011;26963;42.666;23.366;2023-07-29T00:59:14;4.32;;;3.28;;
40204;SDS011;26963;42.666;23.366;2023-07-29T01:01:40;5.22;;;3.00;;
40204;SDS011;26963;42.666;23.366;2023-07-29T01:04:06;8.18;;;3.58;;
40204;SDS011;26963;42.666;23.366;2023-07-29T01:17:30;5.72;;;3.80;;
40204;SDS011;26963;42.666;23.366;2023-07-29T01:20:09;4.97;;;3.75;;
40204;SDS011;26963;42.666;23.366;2023-07-29T01:22:40;5.15;;;3.40;;
40204;SDS011;26963;42.666;23.366;2023-07-29T01:25:07;4.57;;;3.42;;
40204;SDS011;26963;42.666;23.366;2023-07-29T01:27:33;5.80;;;3.78;;
40204;SDS011;26963;42.666;23.366;2023-07-29T01:29:58;5.15;;;3.83;;
40204;SDS011;26963;42.666;23.366;2023-07-29T01:35:01;6.97;;;3.83;;
40204;SDS011;26963;42.666;23.366;2023-07-29T01:37:28;6.10;;;3.65;;
40204;SDS011;26963;42.666;23.366;2023-07-29T01:39:57;7.68;;;3.97;;
40204;SDS011;26963;42.666;23.366;2023-07-29T01:42:25;4.95;;;3.70;;
40204;SDS011;26963;42.666;23.366;2023-07-29T01:44:51;5.85;;;3.83;;
40204;SDS011;26963;42.666;23.366;2023-07-29T01:47:17;4.65;;;3.38;;
40204;SDS011;26963;42.666;23.366;2023-07-29T01:49:43;7.25;;;3.38;;
40204;SDS011;26963;42.666;23.366;2023-07-29T01:52:08;5.07;;;3.45;;
40204;SDS011;26963;42.666;23.366;2023-07-29T01:54:34;4.85;;;3.50;;
40204;SDS011;26963;42.666;23.366;2023-07-29T01:56:59;5.57;;;3.30;;
40204;SDS011;26963;42.666;23.366;2023-07-29T01:59:25;4.68;;;3.40;;
40204;SDS011;26963;42.666;23.366;2023-07-29T02:01:50;5.05;;;3.42;;
40204;SDS011;26963;42.666;23.366;2023-07-29T02:04:16;4.68;;;3.58;;
40204;SDS011;26963;42.666;23.366;2023-07-29T02:06:41;6.20;;;3.60;;
40204;SDS011;26963;42.666;23.366;2023-07-29T02:09:07;6.05;;;3.90;;
40204;SDS011;26963;42.666;23.366;2023-07-29T02:11:32;7.70;;;3.45;;
40204;SDS011;26963;42.666;23.366;2023-07-29T02:13:58;6.50;;;3.63;;
40204;SDS011;26963;42.666;23.366;2023-07-29T02:16:23;7.03;;;3.38;;
40204;SDS011;26963;42.666;23.366;2023-07-29T02:18:49;5.90;;;3.10;;
40204;SDS011;26963;42.666;23.366;2023-07-29T02:21:15;8.50;;;4.05;;
40204;SDS011;26963;42.666;23.366;2023-07-29T02:23:42;5.88;;;3.50;;
40204;SDS011;26963;42.666;23.366;2023-07-29T02:26:07;4.65;;;3.30;;
40204;SDS011;26963;42.666;23.366;2023-07-29T02:28:33;5.25;;;3.33;;
40204;SDS011;26963;42.666;23.366;2023-07-29T02:33:46;6.75;;;3.60;;
40204;SDS011;26963;42.666;23.366;2023-07-29T02:36:12;5.85;;;3.20;;
40204;SDS011;26963;42.666;23.366;2023-07-29T02:38:39;6.18;;;3.25;;
40204;SDS011;26963;42.666;23.366;2023-07-29T02:41:05;6.22;;;3.05;;
40204;SDS011;26963;42.666;23.366;2023-07-29T02:43:31;7.75;;;2.95;;
40204;SDS011;26963;42.666;23.366;2023-07-29T02:45:57;4.13;;;2.85;;
40204;SDS011;26963;42.666;23.366;2023-07-29T02:48:22;6.90;;;3.20;;
40204;SDS011;26963;42.666;23.366;2023-07-29T02:50:48;5.65;;;3.20;;
40204;SDS011;26963;42.666;23.366;2023-07-29T02:53:13;3.70;;;3.00;;
40204;SDS011;26963;42.666;23.366;2023-07-29T02:55:39;4.00;;;2.75;;
40204;SDS011;26963;42.666;23.366;2023-07-29T02:58:06;5.30;;;3.10;;
40204;SDS011;26963;42.666;23.366;2023-07-29T03:00:32;4.68;;;3.13;;
40204;SDS011;26963;42.666;23.366;2023-07-29T03:02:58;6.43;;;2.80;;
40204;SDS011;26963;42.666;23.366;2023-07-29T03:05:24;6.00;;;3.60;;
40204;SDS011;26963;42.666;23.366;2023-07-29T03:07:49;9.13;;;5.75;;
40204;SDS011;26963;42.666;23.366;2023-07-29T03:10:15;7.70;;;4.28;;
40204;SDS011;26963;42.666;23.366;2023-07-29T03:12:40;9.23;;;4.80;;
40204;SDS011;26963;42.666;23.366;2023-07-29T03:15:06;5.60;;;4.38;;
40204;SDS011;26963;42.666;23.366;2023-07-29T03:17:32;5.57;;;4.30;;
40204;SDS011;26963;42.666;23.366;2023-07-29T03:19:57;8.43;;;4.35;;
40204;SDS011;26963;42.666;23.366;2023-07-29T03:22:23;7.97;;;4.60;;
40204;SDS011;26963;42.666;23.366;2023-07-29T03:24:49;6.75;;;4.50;;
40204;SDS011;26963;42.666;23.366;2023-07-29T03:27:14;6.85;;;4.45;;
40204;SDS011;26963;42.666;23.366;2023-07-29T03:29:41;6.10;;;4.30;;
40204;SDS011;26963;42.666;23.366;2023-07-29T03:32:07;9.32;;;3.95;;
40204;SDS011;26963;42.666;23.366;2023-07-29T03:34:33;6.63;;;4.30;;
40204;SDS011;26963;42.666;23.366;2023-07-29T03:37:00;7.00;;;4.28;;
40204;SDS011;26963;42.666;23.366;2023-07-29T03:39:26;9.52;;;4.15;;
40204;SDS011;26963;42.666;23.366;2023-07-29T03:41:52;5.10;;;4.15;;
40204;SDS011;26963;42.666;23.366;2023-07-29T03:44:17;6.97;;;4.68;;
40204;SDS011;26963;42.666;23.366;2023-07-29T03:46:44;5.47;;;4.15;;
40204;SDS011;26963;42.666;23.366;2023-07-29T03:49:10;9.05;;;4.50;;
40204;SDS011;26963;42.666;23.366;2023-07-29T03:51:36;5.95;;;4.45;;
40204;SDS011;26963;42.666;23.366;2023-07-29T03:54:01;6.88;;;4.43;;
40204;SDS011;26963;42.666;23.366;2023-07-29T03:56:27;6.85;;;4.60;;
40204;SDS011;26963;42.666;23.366;2023-07-29T03:58:52;5.68;;;4.60;;
40204;SDS011;26963;42.666;23.366;2023-07-29T04:01:18;9.20;;;4.32;;
40204;SDS011;26963;42.666;23.366;2023-07-29T04:03:44;6.38;;;3.90;;
40204;SDS011;26963;42.666;23.366;2023-07-29T04:06:11;6.40;;;4.65;;
40204;SDS011;26963;42.666;23.366;2023-07-29T04:08:37;7.78;;;4.15;;
40204;SDS011;26963;42.666;23.366;2023-07-29T04:11:03;6.72;;;4.28;;
40204;SDS011;26963;42.666;23.366;2023-07-29T04:13:28;6.95;;;3.75;;
40204;SDS011;26963;42.666;23.366;2023-07-29T04:15:54;4.45;;;3.22;;
40204;SDS011;26963;42.666;23.366;2023-07-29T04:18:19;6.40;;;3.72;;
40204;SDS011;26963;42.666;23.366;2023-07-29T04:20:45;5.82;;;3.35;;
40204;SDS011;26963;42.666;23.366;2023-07-29T04:23:10;7.38;;;3.55;;
40204;SDS011;26963;42.666;23.366;2023-07-29T04:25:36;6.53;;;3.90;;
40204;SDS011;26963;42.666;23.366;2023-07-29T04:28:01;4.32;;;3.22;;
40204;SDS011;26963;42.666;23.366;2023-07-29T04:30:28;4.40;;;3.50;;
40204;SDS011;26963;42.666;23.366;2023-07-29T04:32:54;5.72;;;3.92;;
40204;SDS011;26963;42.666;23.366;2023-07-29T04:35:19;7.60;;;3.83;;
40204;SDS011;26963;42.666;23.366;2023-07-29T04:37:45;6.28;;;4.10;;
40204;SDS011;26963;42.666;23.366;2023-07-29T04:40:13;6.05;;;3.70;;
40204;SDS011;26963;42.666;23.366;2023-07-29T04:42:38;7.20;;;3.70;;
40204;SDS011;26963;42.666;23.366;2023-07-29T04:45:05;4.85;;;3.50;;
40204;SDS011;26963;42.666;23.366;2023-07-29T04:47:31;4.90;;;3.67;;
40204;SDS011;26963;42.666;23.366;2023-07-29T04:49:56;7.57;;;3.80;;
40204;SDS011;26963;42.666;23.366;2023-07-29T04:52:22;7.72;;;3.72;;
40204;SDS011;26963;42.666;23.366;2023-07-29T04:54:47;4.70;;;3.45;;
40204;SDS011;26963;42.666;23.366;2023-07-29T04:57:13;6.90;;;4.18;;
40204;SDS011;26963;42.666;23.366;2023-07-29T04:59:38;6.53;;;3.70;;
40204;SDS011;26963;42.666;23.366;2023-07-29T05:02:04;8.95;;;4.18;;
40204;SDS011;26963;42.666;23.366;2023-07-29T05:04:30;6.13;;;4.03;;
40204;SDS011;26963;42.666;23.366;2023-07-29T05:06:55;7.53;;;4.10;;
40204;SDS011;26963;42.666;23.366;2023-07-29T05:09:21;5.93;;;3.92;;
40204;SDS011;26963;42.666;23.366;2023-07-29T05:11:46;4.80;;;3.67;;
40204;SDS011;26963;42.666;23.366;2023-07-29T05:14:16;10.40;;;7.53;;
40204;SDS011;26963;42.666;23.366;2023-07-29T05:16:43;8.85;;;5.10;;
40204;SDS011;26963;42.666;23.366;2023-07-29T05:19:09;5.65;;;3.70;;
40204;SDS011;26963;42.666;23.366;2023-07-29T05:21:36;7.93;;;4.88;;
40204;SDS011;26963;42.666;23.366;2023-07-29T05:24:02;8.18;;;4.47;;
40204;SDS011;26963;42.666;23.366;2023-07-29T05:26:28;7.75;;;4.32;;
40204;SDS011;26963;42.666;23.366;2023-07-29T05:28:54;7.60;;;4.70;;
40204;SDS011;26963;42.666;23.366;2023-07-29T05:31:19;10.73;;;5.13;;
40204;SDS011;26963;42.666;23.366;2023-07-29T05:33:45;6.10;;;4.47;;
40204;SDS011;26963;42.666;23.366;2023-07-29T05:36:10;9.77;;;5.10;;
40204;SDS011;26963;42.666;23.366;2023-07-29T05:38:36;7.95;;;4.78;;
40204;SDS011;26963;42.666;23.366;2023-07-29T05:41:01;7.85;;;4.65;;
40204;SDS011;26963;42.666;23.366;2023-07-29T05:43:27;7.10;;;4.25;;
40204;SDS011;26963;42.666;23.366;2023-07-29T05:45:53;7.05;;;5.10;;
40204;SDS011;26963;42.666;23.366;2023-07-29T05:48:21;7.93;;;4.63;;
40204;SDS011;26963;42.666;23.366;2023-07-29T05:50:47;7.45;;;4.57;;
40204;SDS011;26963;42.666;23.366;2023-07-29T05:53:13;7.45;;;4.80;;
40204;SDS011;26963;42.666;23.366;2023-07-29T05:55:39;6.85;;;4.90;;
40204;SDS011;26963;42.666;23.366;2023-07-29T05:58:05;11.00;;;4.78;;
40204;SDS011;26963;42.666;23.366;2023-07-29T06:00:31;8.63;;;5.40;;
40204;SDS011;26963;42.666;23.366;2023-07-29T06:02:56;5.72;;;4.07;;
40204;SDS011;26963;42.666;23.366;2023-07-29T06:05:22;12.07;;;4.82;;
40204;SDS011;26963;42.666;23.366;2023-07-29T06:07:47;10.35;;;5.00;;
40204;SDS011;26963;42.666;23.366;2023-07-29T06:10:14;12.40;;;6.03;;
40204;SDS011;26963;42.666;23.366;2023-07-29T06:12:44;8.73;;;5.88;;
40204;SDS011;26963;42.666;23.366;2023-07-29T06:15:10;8.55;;;4.40;;
40204;SDS011;26963;42.666;23.366;2023-07-29T06:17:37;7.13;;;4.70;;
40204;SDS011;26963;42.666;23.366;2023-07-29T06:20:03;7.70;;;5.90;;
40204;SDS011;26963;42.666;23.366;2023-07-29T06:22:29;9.68;;;5.03;;
40204;SDS011;26963;42.666;23.366;2023-07-29T06:24:54;11.20;;;9.82;;
40204;SDS011;26963;42.666;23.366;2023-07-29T06:27:20;7.72;;;4.60;;
40204;SDS011;26963;42.666;23.366;2023-07-29T06:29:45;8.00;;;5.10;;
40204;SDS011;26963;42.666;23.366;2023-07-29T06:32:11;10.60;;;5.40;;
40204;SDS011;26963;42.666;23.366;2023-07-29T06:34:36;9.55;;;5.28;;
40204;SDS011;26963;42.666;23.366;2023-07-29T06:37:02;8.43;;;5.15;;
40204;SDS011;26963;42.666;23.366;2023-07-29T06:39:27;8.38;;;5.10;;
40204;SDS011;26963;42.666;23.366;2023-07-29T06:41:53;10.02;;;5.10;;
40204;SDS011;26963;42.666;23.366;2023-07-29T06:44:18;8.68;;;5.55;;
40204;SDS011;26963;42.666;23.366;2023-07-29T06:46:44;12.30;;;5.28;;
40204;SDS011;26963;42.666;23.366;2023-07-29T06:49:09;8.43;;;5.00;;
40204;SDS011;26963;42.666;23.366;2023-07-29T06:51:35;7.00;;;4.35;;
40204;SDS011;26963;42.666;23.366;2023-07-29T06:54:01;8.35;;;4.22;;
40204;SDS011;26963;42.666;23.366;2023-07-29T06:56:28;8.80;;;4.88;;
40204;SDS011;26963;42.666;23.366;2023-07-29T06:58:53;12.18;;;4.70;;
40204;SDS011;26963;42.666;23.366;2023-07-29T07:01:19;8.65;;;4.75;;
40204;SDS011;26963;42.666;23.366;2023-07-29T07:03:44;9.38;;;4.68;;
40204;SDS011;26963;42.666;23.366;2023-07-29T07:06:10;8.00;;;5.10;;
40204;SDS011;26963;42.666;23.366;2023-07-29T07:08:35;10.77;;;6.00;;
40204;SDS011;26963;42.666;23.366;2023-07-29T07:11:01;7.05;;;4.53;;
40204;SDS011;26963;42.666;23.366;2023-07-29T07:13:26;10.38;;;5.85;;
40204;SDS011;26963;42.666;23.366;2023-07-29T07:15:55;11.68;;;4.70;;
40204;SDS011;26963;42.666;23.366;2023-07-29T07:18:21;12.27;;;5.10;;
40204;SDS011;26963;42.666;23.366;2023-07-29T07:20:51;7.85;;;4.85;;
40204;SDS011;26963;42.666;23.366;2023-07-29T07:23:17;6.75;;;4.43;;
40204;SDS011;26963;42.666;23.366;2023-07-29T07:25:43;10.05;;;5.30;;
40204;SDS011;26963;42.666;23.366;2023-07-29T07:28:09;6.65;;;4.13;;
40204;SDS011;26963;42.666;23.366;2023-07-29T07:30:35;7.10;;;5.25;;
40204;SDS011;26963;42.666;23.366;2023-07-29T07:33:04;5.55;;;3.53;;
40204;SDS011;26963;42.666;23.366;2023-07-29T07:35:29;7.88;;;3.92;;
40204;SDS011;26963;42.666;23.366;2023-07-29T07:37:55;9.93;;;4.18;;
40204;SDS011;26963;42.666;23.366;2023-07-29T07:40:20;10.02;;;3.80;;
40204;SDS011;26963;42.666;23.366;2023-07-29T07:42:46;7.50;;;4.97;;
40204;SDS011;26963;42.666;23.366;2023-07-29T07:45:11;7.78;;;4.55;;
40204;SDS011;26963;42.666;23.366;2023-07-29T07:47:37;7.57;;;3.80;;
40204;SDS011;26963;42.666;23.366;2023-07-29T07:50:03;6.57;;;5.28;;
40204;SDS011;26963;42.666;23.366;2023-07-29T07:52:29;9.15;;;4.05;;
40204;SDS011;26963;42.666;23.366;2023-07-29T07:54:54;7.78;;;5.05;;
40204;SDS011;26963;42.666;23.366;2023-07-29T07:57:20;6.05;;;3.45;;
40204;SDS011;26963;42.666;23.366;2023-07-29T07:59:46;8.75;;;4.57;;
40204;SDS011;26963;42.666;23.366;2023-07-29T08:02:12;7.05;;;3.53;;
40204;SDS011;26963;42.666;23.366;2023-07-29T08:04:38;5.47;;;4.00;;
40204;SDS011;26963;42.666;23.366;2023-07-29T08:07:03;9.30;;;4.00;;
40204;SDS011;26963;42.666;23.366;2023-07-29T08:09:29;9.15;;;4.97;;
40204;SDS011;26963;42.666;23.366;2023-07-29T08:11:55;9.02;;;4.78;;
40204;SDS011;26963;42.666;23.366;2023-07-29T08:14:20;6.47;;;4.00;;
40204;SDS011;26963;42.666;23.366;2023-07-29T08:16:46;5.20;;;3.10;;
40204;SDS011;26963;42.666;23.366;2023-07-29T08:19:12;7.32;;;3.88;;
40204;SDS011;26963;42.666;23.366;2023-07-29T08:21:38;7.10;;;5.03;;
40204;SDS011;26963;42.666;23.366;2023-07-29T08:24:03;6.43;;;3.70;;
40204;SDS011;26963;42.666;23.366;2023-07-29T08:26:29;7.18;;;3.53;;
40204;SDS011;26963;42.666;23.366;2023-07-29T08:28:54;4.35;;;3.28;;
40204;SDS011;26963;42.666;23.366;2023-07-29T08:31:20;6.85;;;4.10;;
40204;SDS011;26963;42.666;23.366;2023-07-29T08:33:46;6.57;;;3.85;;
40204;SDS011;26963;42.666;23.366;2023-07-29T08:36:11;8.15;;;3.58;;
40204;SDS011;26963;42.666;23.366;2023-07-29T08:38:37;9.25;;;3.90;;
40204;SDS011;26963;42.666;23.366;2023-07-29T08:43:44;9.00;;;3.70;;
40204;SDS011;26963;42.666;23.366;2023-07-29T08:46:18;4.68;;;2.80;;
40204;SDS011;26963;42.666;23.366;2023-07-29T08:48:44;4.32;;;3.00;;
40204;SDS011;26963;42.666;23.366;2023-07-29T08:51:11;5.00;;;2.80;;
40204;SDS011;26963;42.666;23.366;2023-07-29T08:53:37;8.13;;;2.97;;
40204;SDS011;26963;42.666;23.366;2023-07-29T08:56:04;4.78;;;2.83;;
40204;SDS011;26963;42.666;23.366;2023-07-29T08:58:30;7.47;;;3.67;;
40204;SDS011;26963;42.666;23.366;2023-07-29T09:00:56;4.68;;;2.95;;
40204;SDS011;26963;42.666;23.366;2023-07-29T09:03:21;5.63;;;2.80;;
40204;SDS011;26963;42.666;23.366;2023-07-29T09:05:47;4.60;;;3.13;;
40204;SDS011;26963;42.666;23.366;2023-07-29T09:08:13;3.75;;;2.85;;
40204;SDS011;26963;42.666;23.366;2023-07-29T09:10:39;2.90;;;2.20;;
40204;SDS011;26963;42.666;23.366;2023-07-29T09:13:05;3.17;;;2.10;;
40204;SDS011;26963;42.666;23.366;2023-07-29T09:15:31;6.22;;;2.00;;
40204;SDS011;26963;42.666;23.366;2023-07-29T09:17:58;3.85;;;2.78;;
40204;SDS011;26963;42.666;23.366;2023-07-29T09:20:25;2.78;;;2.30;;
40204;SDS011;26963;42.666;23.366;2023-07-29T09:22:56;1.98;;;1.42;;
40204;SDS011;26963;42.666;23.366;2023-07-29T09:25:24;2.60;;;2.40;;
40204;SDS011;26963;42.666;23.366;2023-07-29T09:28:07;4.88;;;2.70;;
40204;SDS011;26963;42.666;23.366;2023-07-29T09:30:35;4.63;;;3.20;;
40204;SDS011;26963;42.666;23.366;2023-07-29T09:33:00;5.32;;;2.38;;
40204;SDS011;26963;42.666;23.366;2023-07-29T09:35:27;3.08;;;2.40;;
40204;SDS011;26963;42.666;23.366;2023-07-29T09:37:55;3.67;;;2.33;;
40204;SDS011;26963;42.666;23.366;2023-07-29T09:40:20;3.00;;;2.20;;
40204;SDS011;26963;42.666;23.366;2023-07-29T09:42:49;6.53;;;2.50;;
40204;SDS011;26963;42.666;23.366;2023-07-29T09:45:22;3.90;;;2.28;;
40204;SDS011;26963;42.666;23.366;2023-07-29T09:47:52;4.18;;;2.17;;
40204;SDS011;26963;42.666;23.366;2023-07-29T09:50:18;3.65;;;2.05;;
40204;SDS011;26963;42.666;23.366;2023-07-29T09:52:44;3.03;;;2.00;;
40204;SDS011;26963;42.666;23.366;2023-07-29T09:55:11;5.03;;;2.00;;
40204;SDS011;26963;42.666;23.366;2023-07-29T09:57:38;2.42;;;1.98;;
40204;SDS011;26963;42.666;23.366;2023-07-29T10:00:05;3.65;;;2.13;;
40204;SDS011;26963;42.666;23.366;2023-07-29T10:02:42;3.85;;;2.35;;
40204;SDS011;26963;42.666;23.366;2023-07-29T10:05:09;3.85;;;2.20;;
40204;SDS011;26963;42.666;23.366;2023-07-29T10:07:36;3.55;;;2.40;;
40204;SDS011;26963;42.666;23.366;2023-07-29T10:10:06;3.35;;;2.13;;
40204;SDS011;26963;42.666;23.366;2023-07-29T10:12:33;2.97;;;1.77;;
40204;SDS011;26963;42.666;23.366;2023-07-29T10:15:02;7.28;;;2.38;;
40204;SDS011;26963;42.666;23.366;2023-07-29T10:17:29;4.70;;;2.20;;
40204;SDS011;26963;42.666;23.366;2023-07-29T10:19:56;4.60;;;2.38;;
40204;SDS011;26963;42.666;23.366;2023-07-29T10:22:27;6.70;;;2.70;;
40204;SDS011;26963;42.666;23.366;2023-07-29T10:27:27;4.32;;;2.40;;
40204;SDS011;26963;42.666;23.366;2023-07-29T10:29:55;5.28;;;2.53;;
40204;SDS011;26963;42.666;23.366;2023-07-29T10:32:23;4.18;;;2.83;;
40204;SDS011;26963;42.666;23.366;2023-07-29T10:34:51;3.88;;;2.50;;
40204;SDS011;26963;42.666;23.366;2023-07-29T10:37:17;4.07;;;2.95;;
40204;SDS011;26963;42.666;23.366;2023-07-29T10:39:51;4.40;;;2.25;;
40204;SDS011;26963;42.666;23.366;2023-07-29T10:42:19;5.85;;;2.20;;
40204;SDS011;26963;42.666;23.366;2023-07-29T10:44:48;5.05;;;2.22;;
40204;SDS011;26963;42.666;23.366;2023-07-29T10:49:45;5.75;;;2.00;;
40204;SDS011;26963;42.666;23.366;2023-07-29T10:52:27;4.15;;;2.08;;
40204;SDS011;26963;42.666;23.366;2023-07-29T10:54:55;4.65;;;2.28;;
40204;SDS011;26963;42.666;23.366;2023-07-29T10:57:31;5.07;;;2.17;;
40204;SDS011;26963;42.666;23.366;2023-07-29T10:59:57;6.32;;;3.25;;
40204;SDS011;26963;42.666;23.366;2023-07-29T11:02:28;3.15;;;2.20;;
40204;SDS011;26963;42.666;23.366;2023-07-29T11:05:07;2.92;;;2.25;;
40204;SDS011;26963;42.666;23.366;2023-07-29T11:07:47;5.32;;;2.22;;
40204;SDS011;26963;42.666;23.366;2023-07-29T11:10:15;4.03;;;2.30;;
40204;SDS011;26963;42.666;23.366;2023-07-29T11:17:38;2.92;;;1.40;;
40204;SDS011;26963;42.666;23.366;2023-07-29T11:20:06;1.92;;;1.17;;
40204;SDS011;26963;42.666;23.366;2023-07-29T11:22:33;1.55;;;1.30;;
40204;SDS011;26963;42.666;23.366;2023-07-29T11:24:59;1.52;;;1.20;;
40204;SDS011;26963;42.666;23.366;2023-07-29T11:27:25;5.10;;;2.53;;
40204;SDS011;26963;42.666;23.366;2023-07-29T11:29:50;2.28;;;1.65;;
40204;SDS011;26963;42.666;23.366;2023-07-29T11:32:21;2.77;;;1.90;;
40204;SDS011;26963;42.666;23.366;2023-07-29T11:34:46;2.35;;;1.60;;
40204;SDS011;26963;42.666;23.366;2023-07-29T11:37:12;2.90;;;1.95;;
40204;SDS011;26963;42.666;23.366;2023-07-29T11:39:41;10.38;;;8.65;;
40204;SDS011;26963;42.666;23.366;2023-07-29T11:42:10;5.25;;;3.47;;
40204;SDS011;26963;42.666;23.366;2023-07-29T11:44:36;4.25;;;2.20;;
40204;SDS011;26963;42.666;23.366;2023-07-29T11:47:02;2.33;;;1.70;;
40204;SDS011;26963;42.666;23.366;2023-07-29T11:49:30;5.82;;;4.32;;
40204;SDS011;26963;42.666;23.366;2023-07-29T11:51:58;4.72;;;2.10;;
40204;SDS011;26963;42.666;23.366;2023-07-29T11:54:24;2.85;;;1.90;;
40204;SDS011;26963;42.666;23.366;2023-07-29T11:56:50;3.15;;;1.92;;
40204;SDS011;26963;42.666;23.366;2023-07-29T11:59:16;3.72;;;1.90;;
40204;SDS011;26963;42.666;23.366;2023-07-29T12:01:41;2.72;;;1.73;;
40204;SDS011;26963;42.666;23.366;2023-07-29T12:04:07;2.15;;;1.60;;
40204;SDS011;26963;42.666;23.366;2023-07-29T12:06:33;2.92;;;1.60;;
40204;SDS011;26963;42.666;23.366;2023-07-29T12:08:59;2.78;;;1.60;;
40204;SDS011;26963;42.666;23.366;2023-07-29T12:11:25;2.00;;;1.80;;
40204;SDS011;26963;42.666;23.366;2023-07-29T12:13:53;3.13;;;1.70;;
40204;SDS011;26963;42.666;23.366;2023-07-29T12:16:18;1.60;;;1.50;;
40204;SDS011;26963;42.666;23.366;2023-07-29T12:18:44;2.63;;;1.67;;
40204;SDS011;26963;42.666;23.366;2023-07-29T12:21:10;3.63;;;2.20;;
40204;SDS011;26963;42.666;23.366;2023-07-29T12:23:36;1.70;;;1.42;;
40204;SDS011;26963;42.666;23.366;2023-07-29T12:26:01;4.60;;;1.45;;
40204;SDS011;26963;42.666;23.366;2023-07-29T12:28:27;1.77;;;1.65;;
40204;SDS011;26963;42.666;23.366;2023-07-29T12:30:53;2.47;;;1.60;;
40204;SDS011;26963;42.666;23.366;2023-07-29T12:36:14;3.17;;;2.20;;
40204;SDS011;26963;42.666;23.366;2023-07-29T12:38:42;4.63;;;3.28;;
40204;SDS011;26963;42.666;23.366;2023-07-29T12:41:09;4.38;;;3.30;;
40204;SDS011;26963;42.666;23.366;2023-07-29T12:43:34;6.47;;;3.33;;
40204;SDS011;26963;42.666;23.366;2023-07-29T12:46:00;4.75;;;2.38;;
40204;SDS011;26963;42.666;23.366;2023-07-29T12:48:25;3.13;;;2.60;;
40204;SDS011;26963;42.666;23.366;2023-07-29T12:50:51;3.47;;;2.47;;
40204;SDS011;26963;42.666;23.366;2023-07-29T12:53:16;4.78;;;2.60;;
40204;SDS011;26963;42.666;23.366;2023-07-29T12:55:43;4.25;;;3.33;;
40204;SDS011;26963;42.666;23.366;2023-07-29T12:58:08;4.43;;;2.45;;
40204;SDS011;26963;42.666;23.366;2023-07-29T13:00:34;2.88;;;1.90;;
40204;SDS011;26963;42.666;23.366;2023-07-29T13:02:59;3.83;;;2.60;;
40204;SDS011;26963;42.666;23.366;2023-07-29T13:05:25;4.43;;;3.08;;
40204;SDS011;26963;42.666;23.366;2023-07-29T13:07:50;4.80;;;3.83;;
40204;SDS011;26963;42.666;23.366;2023-07-29T13:10:16;3.25;;;2.60;;
40204;SDS011;26963;42.666;23.366;2023-07-29T13:12:41;6.28;;;3.47;;
40204;SDS011;26963;42.666;23.366;2023-07-29T13:15:07;5.30;;;2.63;;
40204;SDS011;26963;42.666;23.366;2023-07-29T13:17:33;3.85;;;3.00;;
40204;SDS011;26963;42.666;23.366;2023-07-29T13:19:59;8.00;;;5.03;;
40204;SDS011;26963;42.666;23.366;2023-07-29T13:22:25;3.35;;;2.60;;
40204;SDS011;26963;42.666;23.366;2023-07-29T13:24:50;4.72;;;3.40;;
40204;SDS011;26963;42.666;23.366;2023-07-29T13:27:16;4.35;;;3.00;;
40204;SDS011;26963;42.666;23.366;2023-07-29T13:29:41;6.40;;;4.50;;
40204;SDS011;26963;42.666;23.366;2023-07-29T13:32:08;4.07;;;2.83;;
40204;SDS011;26963;42.666;23.366;2023-07-29T13:34:34;2.88;;;2.40;;
40204;SDS011;26963;42.666;23.366;2023-07-29T13:37:00;4.30;;;2.35;;
40204;SDS011;26963;42.666;23.366;2023-07-29T13:39:25;3.38;;;2.58;;
40204;SDS011;26963;42.666;23.366;2023-07-29T13:41:52;4.35;;;2.40;;
40204;SDS011;26963;42.666;23.366;2023-07-29T13:44:18;5.15;;;3.38;;
40204;SDS011;26963;42.666;23.366;2023-07-29T13:46:44;4.20;;;2.55;;
40204;SDS011;26963;42.666;23.366;2023-07-29T13:49:09;3.53;;;2.78;;
40204;SDS011;26963;42.666;23.366;2023-07-29T13:51:35;4.65;;;3.35;;
40204;SDS011;26963;42.666;23.366;2023-07-29T13:54:00;4.93;;;3.25;;
40204;SDS011;26963;42.666;23.366;2023-07-29T13:56:26;9.77;;;8.30;;
40204;SDS011;26963;42.666;23.366;2023-07-29T13:58:51;7.07;;;6.25;;
40204;SDS011;26963;42.666;23.366;2023-07-29T14:01:17;6.35;;;3.78;;
40204;SDS011;26963;42.666;23.366;2023-07-29T14:03:43;5.85;;;4.28;;
40204;SDS011;26963;42.666;23.366;2023-07-29T14:06:08;3.72;;;2.25;;
40204;SDS011;26963;42.666;23.366;2023-07-29T14:08:34;5.28;;;3.40;;
40204;SDS011;26963;42.666;23.366;2023-07-29T14:11:00;5.03;;;4.30;;
40204;SDS011;26963;42.666;23.366;2023-07-29T14:13:26;3.25;;;2.42;;
40204;SDS011;26963;42.666;23.366;2023-07-29T14:15:51;6.18;;;2.50;;
40204;SDS011;26963;42.666;23.366;2023-07-29T14:18:17;3.33;;;2.25;;
40204;SDS011;26963;42.666;23.366;2023-07-29T14:20:42;3.35;;;2.25;;
40204;SDS011;26963;42.666;23.366;2023-07-29T14:23:08;6.20;;;4.13;;
40204;SDS011;26963;42.666;23.366;2023-07-29T14:25:33;4.60;;;3.30;;
40204;SDS011;26963;42.666;23.366;2023-07-29T14:27:59;2.50;;;2.30;;
40204;SDS011;26963;42.666;23.366;2023-07-29T14:30:24;4.22;;;2.10;;
40204;SDS011;26963;42.666;23.366;2023-07-29T14:32:49;3.83;;;2.78;;
40204;SDS011;26963;42.666;23.366;2023-07-29T14:35:15;2.80;;;2.40;;
40204;SDS011;26963;42.666;23.366;2023-07-29T14:37:40;3.85;;;3.00;;
40204;SDS011;26963;42.666;23.366;2023-07-29T14:40:06;6.35;;;3.35;;
40204;SDS011;26963;42.666;23.366;2023-07-29T14:42:32;6.80;;;3.70;;
40204;SDS011;26963;42.666;23.366;2023-07-29T14:44:57;3.03;;;2.13;;
40204;SDS011;26963;42.666;23.366;2023-07-29T14:47:23;3.33;;;2.20;;
40204;SDS011;26963;42.666;23.366;2023-07-29T14:49:49;10.45;;;2.80;;
40204;SDS011;26963;42.666;23.366;2023-07-29T14:52:14;4.47;;;2.33;;
40204;SDS011;26963;42.666;23.366;2023-07-29T14:54:40;3.70;;;2.25;;
40204;SDS011;26963;42.666;23.366;2023-07-29T14:57:06;4.03;;;2.10;;
40204;SDS011;26963;42.666;23.366;2023-07-29T14:59:32;2.90;;;2.13;;